Weather at Bald Knob Municipal Airport

Public forecast

Using degrees Fahrenheit for public forecast. Weather courtesy of forecast.io.

Closest aviation weather report (METAR) to Bald Knob Municipal Airport

Closest report is Searcy Municipal Airport, 10.3 nm (19.1 km) WSW. Retrieved 2021/03/05 01:56 UTC (8 minutes ago):

KSRC 050156Z AUTO 00000KT 10SM CLR 11/04 A3008 RMK AO2 SLP187 T01060044

Closest aviation forecast (TAF) to Bald Knob Municipal Airport

Closest forecast is Little Rock Air Force Base, 37.1 nm (68.7 km) SW. Retrieved 2021-03-05 23:00 UTC (0 seconds ago):

TAF TAF KLRF 042300Z 0423/0605 VRB06KT 9999 SKC QNH3007INS BECMG 0512/0513 04006KT 8000 -SHRA SCT020 BKN100 QNH3015INS BECMG 0517/0518 04012G18KT 9999 NSW BKN080 QNH3016INS BECMG 0523/0524 02006KT 9999 BKN100 QNH3020INS TX22/0520Z TN08/0512Z